CPX307 Details

Departure: Seattle-Tacoma International Airport (KSEA)
Arrival: Portland International Airport (KPDX) at N/A
Route: SEA HELNS6
Notes:


Current Weather Information
KSEA 250453Z 07009KT 10SM SCT036 BKN046 20/11 A3002 RMK AO2 SLP171 T02000111
KPDX 250453Z 32010KT 10SM FEW045 19/12 A3003 RMK AO2 SLP168 T01940122 $